Time,TemperatureF,DewpointF,PressureIn,WindDirection,WindDirectionDegrees,WindSpeedMPH,WindSpeedGustMPH,Humidity,HourlyPrecipIn,Conditions,Clouds,dailyrainin,SoftwareType,DateUTC
2013-04-14 00:00:00,57.7,52.5,29.85,NNW,338,0.0,0.0,83,0.00,,---,0.00,VWS V14.01,2013-04-14 05:00:00,
2013-04-14 00:05:00,57.7,52.5,29.85,NNW,338,0.0,0.0,83,0.00,,---,0.00,VWS V14.01,2013-04-14 05:05:00,
2013-04-14 00:10:00,57.7,52.5,29.85,North,0,0.0,0.0,83,0.00,,---,0.00,VWS V14.01,2013-04-14 05:10:00,
2013-04-14 00:15:00,57.7,52.5,29.85,NNW,338,0.0,0.0,83,0.00,,---,0.00,VWS V14.01,2013-04-14 05:15:00,
2013-04-14 00:20:00,57.7,52.5,29.85,North,0,0.0,0.0,83,0.00,,---,0.00,VWS V14.01,2013-04-14 05:20:00,
2013-04-14 00:25:00,57.7,52.5,29.85,North,0,0.0,0.0,83,0.00,,---,0.00,VWS V14.01,2013-04-14 05:25:00,
2013-04-14 00:30:00,57.7,52.5,29.85,ENE,68,0.0,0.0,83,0.00,,---,0.00,VWS V14.01,2013-04-14 05:30:00,
2013-04-14 00:35:00,57.5,52.4,29.85,NNW,338,0.0,0.0,83,0.00,,---,0.00,VWS V14.01,2013-04-14 05:35:00,
2013-04-14 00:40:00,57.5,52.4,29.85,NNE,22,0.0,0.0,83,0.00,,---,0.00,VWS V14.01,2013-04-14 05:40:00,
2013-04-14 00:45:00,57.5,52.4,29.82,NNE,22,0.0,0.0,83,0.00,,---,0.00,VWS V14.01,2013-04-14 05:45:00,
2013-04-14 00:50:00,57.7,52.5,29.82,North,0,0.0,0.0,83,0.00,,---,0.00,VWS V14.01,2013-04-14 05:50:00,
2013-04-14 00:55:00,57.7,52.9,29.82,ENE,68,0.0,0.0,84,0.00,,---,0.00,VWS V14.01,2013-04-14 05:55:00,
2013-04-14 01:00:00,57.8,53.4,29.82,SSW,202,0.0,0.0,85,0.00,,---,0.00,VWS V14.01,2013-04-14 06:00:00,
2013-04-14 01:05:00,58.0,53.2,29.82,SSW,202,1.1,1.1,84,0.00,,---,0.00,VWS V14.01,2013-04-14 06:05:00,
2013-04-14 01:10:00,58.2,53.1,29.82,SSE,158,0.9,0.9,83,0.00,,---,0.00,VWS V14.01,2013-04-14 06:10:00,
2013-04-14 01:15:00,58.4,53.2,29.85,SSE,158,0.0,0.0,83,0.00,,---,0.00,VWS V14.01,2013-04-14 06:15:00,
2013-04-14 01:20:00,58.4,53.2,29.85,SSE,158,3.1,3.1,83,0.00,,---,0.00,VWS V14.01,2013-04-14 06:20:00,
2013-04-14 01:25:00,58.4,53.2,29.85,ESE,112,0.0,0.0,83,0.00,,---,0.00,VWS V14.01,2013-04-14 06:25:00,
2013-04-14 01:30:00,58.4,53.2,29.82,ESE,112,0.0,0.0,83,0.00,,---,0.00,VWS V14.01,2013-04-14 06:30:00,
2013-04-14 01:35:00,58.4,53.2,29.82,SSE,158,0.0,0.0,83,0.00,,---,0.00,VWS V14.01,2013-04-14 06:35:00,
2013-04-14 01:40:00,58.4,53.2,29.82,SSE,158,0.0,0.0,83,0.00,,---,0.00,VWS V14.01,2013-04-14 06:40:00,
2013-04-14 01:45:00,58.4,53.2,29.82,SSE,158,0.0,0.0,83,0.00,,---,0.00,VWS V14.01,2013-04-14 06:45:00,
2013-04-14 01:50:00,58.4,53.2,29.82,SSE,158,1.3,1.3,83,0.00,,---,0.00,VWS V14.01,2013-04-14 06:50:00,
2013-04-14 01:55:00,58.6,52.4,29.82,SSE,158,0.0,0.0,80,0.00,,---,0.00,VWS V14.01,2013-04-14 06:55:00,
2013-04-14 02:00:00,58.6,52.4,29.82,SSE,158,2.0,2.0,80,0.00,,---,0.00,VWS V14.01,2013-04-14 07:00:00,
2013-04-14 02:05:00,58.6,52.4,29.82,SSE,158,0.0,0.0,80,0.00,,---,0.00,VWS V14.01,2013-04-14 07:05:00,
2013-04-14 02:10:00,58.6,52.4,29.82,SE,135,0.0,0.0,80,0.00,,---,0.00,VWS V14.01,2013-04-14 07:10:00,
2013-04-14 02:15:00,58.6,52.4,29.82,WSW,248,0.0,0.0,80,0.00,,---,0.00,VWS V14.01,2013-04-14 07:15:00,
2013-04-14 02:20:00,58.6,52.4,29.82,WSW,248,0.0,0.0,80,0.00,,---,0.00,VWS V14.01,2013-04-14 07:20:00,
2013-04-14 02:25:00,58.7,51.9,29.82,SSW,202,0.0,0.0,78,0.00,,---,0.00,VWS V14.01,2013-04-14 07:25:00,
2013-04-14 02:30:00,58.7,51.9,29.82,SSW,202,0.0,0.0,78,0.00,,---,0.00,VWS V14.01,2013-04-14 07:30:00,
2013-04-14 02:36:00,58.7,51.9,29.82,SE,135,0.0,0.9,78,0.00,,---,0.00,VWS V14.01,2013-04-14 07:36:00,
2013-04-14 02:41:00,58.7,51.9,29.82,SSE,158,3.4,3.6,78,0.00,,---,0.00,VWS V14.01,2013-04-14 07:41:00,
2013-04-14 02:46:00,58.7,52.6,29.82,ESE,112,1.6,2.7,80,0.00,,---,0.00,VWS V14.01,2013-04-14 07:46:00,
2013-04-14 02:51:00,58.7,52.2,29.82,SSE,158,0.0,0.0,79,0.00,,---,0.00,VWS V14.01,2013-04-14 07:51:00,
2013-04-14 02:56:00,58.9,52.4,29.82,ENE,68,0.0,0.0,79,0.00,,---,0.00,VWS V14.01,2013-04-14 07:56:00,
2013-04-14 03:01:00,58.9,52.8,29.79,ESE,112,2.5,2.5,80,0.00,,---,0.00,VWS V14.01,2013-04-14 08:01:00,
2013-04-14 03:06:00,59.1,53.6,29.79,ESE,112,3.6,3.6,82,0.00,,---,0.00,VWS V14.01,2013-04-14 08:06:00,
2013-04-14 03:11:00,59.1,53.3,29.79,ESE,112,3.4,4.7,81,0.00,,---,0.00,VWS V14.01,2013-04-14 08:11:00,
2013-04-14 03:16:00,59.1,53.6,29.79,SSE,158,5.6,6.5,82,0.00,,---,0.00,VWS V14.01,2013-04-14 08:16:00,
2013-04-14 03:21:00,59.1,54.3,29.79,SSE,158,3.4,3.4,84,0.00,,---,0.00,VWS V14.01,2013-04-14 08:21:00,
2013-04-14 03:26:00,58.9,54.4,29.79,WNW,292,2.2,2.2,85,0.00,,---,0.00,VWS V14.01,2013-04-14 08:26:00,
2013-04-14 03:31:00,58.7,54.9,29.82,WNW,292,2.7,2.7,87,0.00,,---,0.00,VWS V14.01,2013-04-14 08:31:00,
2013-04-14 03:36:00,58.6,55.3,29.82,NNW,338,0.0,2.2,89,0.00,,---,0.00,VWS V14.01,2013-04-14 08:36:00,
2013-04-14 03:42:00,58.6,55.3,29.82,ESE,112,0.0,0.0,89,0.00,,---,0.00,VWS V14.01,2013-04-14 08:42:00,
2013-04-14 03:47:00,58.4,55.2,29.82,NNE,22,0.0,0.0,89,0.00,,---,0.00,VWS V14.01,2013-04-14 08:47:00,
2013-04-14 03:52:00,58.4,55.5,29.82,WNW,292,2.2,2.5,90,0.00,,---,0.00,VWS V14.01,2013-04-14 08:52:00,
2013-04-14 03:57:00,58.4,56.1,29.82,WNW,292,0.0,0.0,92,0.04,,---,0.04,VWS V14.01,2013-04-14 08:57:00,
2013-04-14 04:02:00,58.2,55.9,29.85,ENE,68,0.0,0.0,92,0.04,,---,0.04,VWS V14.01,2013-04-14 09:02:00,
2013-04-14 04:07:00,58.2,55.9,29.85,SSW,202,2.9,2.9,92,0.04,,---,0.04,VWS V14.01,2013-04-14 09:07:00,
2013-04-14 04:12:00,58.2,55.9,29.85,SSE,158,0.0,3.1,92,0.04,,---,0.04,VWS V14.01,2013-04-14 09:12:00,
2013-04-14 04:17:00,58.2,55.9,29.88,SE,135,0.9,2.5,92,0.04,,---,0.04,VWS V14.01,2013-04-14 09:17:00,
2013-04-14 04:22:00,58.2,55.9,29.88,SSE,158,3.4,4.3,92,0.09,,---,0.09,VWS V14.01,2013-04-14 09:22:00,
2013-04-14 04:27:00,58.0,55.7,29.88,SSE,158,4.3,4.3,92,0.09,,---,0.09,VWS V14.01,2013-04-14 09:27:00,
2013-04-14 04:32:00,57.8,55.5,29.85,SSE,158,2.7,2.7,92,0.13,,---,0.13,VWS V14.01,2013-04-14 09:32:00,
2013-04-14 04:37:00,57.7,55.4,29.85,SE,135,0.0,1.3,92,0.13,,---,0.13,VWS V14.01,2013-04-14 09:37:00,
2013-04-14 04:42:00,57.7,55.7,29.85,SSE,158,3.1,3.1,93,0.13,,---,0.13,VWS V14.01,2013-04-14 09:42:00,
2013-04-14 04:47:00,57.5,55.5,29.85,SSE,158,1.3,2.9,93,0.17,,---,0.17,VWS V14.01,2013-04-14 09:47:00,
2013-04-14 04:52:00,57.3,55.3,29.85,SSE,158,3.8,4.0,93,0.17,,---,0.17,VWS V14.01,2013-04-14 09:52:00,
2013-04-14 04:57:00,57.3,55.3,29.85,SSE,158,2.0,3.6,93,0.17,,---,0.21,VWS V14.01,2013-04-14 09:57:00,
2013-04-14 05:02:00,57.1,55.1,29.85,ESE,112,2.5,2.5,93,0.21,,---,0.25,VWS V14.01,2013-04-14 10:02:00,
2013-04-14 05:07:00,57.1,55.4,29.85,ESE,112,3.1,3.1,94,0.21,,---,0.25,VWS V14.01,2013-04-14 10:07:00,
2013-04-14 05:12:00,56.9,55.2,29.85,SE,135,0.0,0.0,94,0.25,,---,0.29,VWS V14.01,2013-04-14 10:12:00,
2013-04-14 05:17:00,56.9,55.2,29.85,ESE,112,1.1,2.2,94,0.25,,---,0.29,VWS V14.01,2013-04-14 10:17:00,
2013-04-14 05:22:00,56.9,55.2,29.85,ESE,112,0.0,0.0,94,0.25,,---,0.34,VWS V14.01,2013-04-14 10:22:00,
2013-04-14 05:27:00,56.9,55.5,29.85,SE,135,2.5,2.5,95,0.29,,---,0.38,VWS V14.01,2013-04-14 10:27:00,
2013-04-14 05:32:00,56.8,55.3,29.85,SE,135,1.6,4.0,95,0.33,,---,0.42,VWS V14.01,2013-04-14 10:32:00,
2013-04-14 05:37:00,56.8,55.3,29.85,SSE,158,2.9,2.9,95,0.33,,---,0.46,VWS V14.01,2013-04-14 10:37:00,
2013-04-14 05:42:00,56.8,55.3,29.85,East,90,3.6,3.6,95,0.33,,---,0.46,VWS V14.01,2013-04-14 10:42:00,
2013-04-14 05:47:00,56.8,55.6,29.85,SE,135,3.4,4.9,96,0.33,,---,0.50,VWS V14.01,2013-04-14 10:47:00,
2013-04-14 05:52:00,56.8,55.6,29.85,SSE,158,3.8,3.8,96,0.37,,---,0.54,VWS V14.01,2013-04-14 10:52:00,
2013-04-14 05:57:00,56.8,55.6,29.85,SSW,202,0.0,0.0,96,0.33,,---,0.54,VWS V14.01,2013-04-14 10:57:00,
2013-04-14 06:02:00,56.8,55.9,29.85,SSE,158,0.0,0.0,97,0.33,,---,0.58,VWS V14.01,2013-04-14 11:02:00,
2013-04-14 06:07:00,56.8,55.9,29.85,SSE,158,1.3,2.7,97,0.38,,---,0.63,VWS V14.01,2013-04-14 11:07:00,
2013-04-14 06:12:00,56.8,55.9,29.85,SE,135,1.6,2.0,97,0.34,,---,0.63,VWS V14.01,2013-04-14 11:12:00,
2013-04-14 06:17:00,56.8,55.9,29.85,ESE,112,0.0,0.0,97,0.38,,---,0.67,VWS V14.01,2013-04-14 11:17:00,
2013-04-14 06:22:00,56.8,55.9,29.85,SSE,158,0.0,0.0,97,0.37,,---,0.71,VWS V14.01,2013-04-14 11:22:00,
2013-04-14 06:27:00,56.9,56.1,29.85,SSE,158,0.0,0.0,97,0.37,,---,0.75,VWS V14.01,2013-04-14 11:27:00,
2013-04-14 06:32:00,56.9,56.1,29.85,ENE,68,0.0,0.0,97,0.33,,---,0.75,VWS V14.01,2013-04-14 11:32:00,
2013-04-14 06:37:00,56.9,56.1,29.85,SSE,158,0.0,0.0,97,0.33,,---,0.79,VWS V14.01,2013-04-14 11:37:00,
2013-04-14 06:42:00,56.9,56.1,29.85,SSE,158,0.0,0.0,97,0.37,,---,0.83,VWS V14.01,2013-04-14 11:42:00,
2013-04-14 06:47:00,56.9,56.1,29.85,SSE,158,2.7,2.7,97,0.33,,---,0.83,VWS V14.01,2013-04-14 11:47:00,
2013-04-14 06:52:00,57.1,56.3,29.85,SSE,158,0.0,0.0,97,0.34,,---,0.88,VWS V14.01,2013-04-14 11:52:00,
2013-04-14 06:58:00,57.1,56.3,29.85,SSE,158,2.7,2.7,97,0.34,,---,0.88,VWS V14.01,2013-04-14 11:58:00,
2013-04-14 07:03:00,57.1,56.3,29.88,SE,135,2.9,2.9,97,0.33,,---,0.91,VWS V14.01,2013-04-14 12:03:00,
2013-04-14 07:08:00,57.1,56.6,29.88,SSE,158,2.7,2.7,98,0.28,,---,0.91,VWS V14.01,2013-04-14 12:08:00,
2013-04-14 07:13:00,57.1,56.6,29.88,WSW,248,2.5,3.8,98,0.33,,---,0.96,VWS V14.01,2013-04-14 12:13:00,
2013-04-14 07:18:00,57.1,56.6,29.88,SSE,158,1.6,1.6,98,0.29,,---,0.96,VWS V14.01,2013-04-14 12:18:00,
2013-04-14 07:23:00,57.1,56.6,29.88,SSE,158,3.1,3.1,98,0.29,,---,1.00,VWS V14.01,2013-04-14 12:23:00,
2013-04-14 07:28:00,57.3,56.7,29.88,WSW,248,0.0,0.0,98,0.29,,---,1.04,VWS V14.01,2013-04-14 12:28:00,
2013-04-14 07:33:00,57.3,56.7,29.88,SSW,202,0.0,0.0,98,0.33,,---,1.08,VWS V14.01,2013-04-14 12:33:00,
2013-04-14 07:38:00,57.3,56.7,29.88,ESE,112,0.0,2.5,98,0.29,,---,1.08,VWS V14.01,2013-04-14 12:38:00,
2013-04-14 07:43:00,57.3,56.7,29.88,SSE,158,0.0,0.0,98,0.33,,---,1.12,VWS V14.01,2013-04-14 12:43:00,
2013-04-14 07:48:00,57.3,56.7,29.88,SE,135,2.0,2.0,98,0.29,,---,1.12,VWS V14.01,2013-04-14 12:48:00,
2013-04-14 07:53:00,57.3,56.7,29.88,East,90,0.0,0.0,98,0.34,,---,1.17,VWS V14.01,2013-04-14 12:53:00,
2013-04-14 07:58:00,57.3,56.7,29.88,ENE,68,0.0,0.0,98,0.29,,---,1.17,VWS V14.01,2013-04-14 12:58:00,
2013-04-14 08:03:00,57.3,56.7,29.88,ESE,112,2.0,2.0,98,0.26,,---,1.17,VWS V14.01,2013-04-14 13:03:00,
2013-04-14 08:08:00,57.3,56.7,29.88,ENE,68,0.0,0.0,98,0.30,,---,1.21,VWS V14.01,2013-04-14 13:08:00,
2013-04-14 08:13:00,57.3,56.7,29.85,ENE,68,0.0,0.0,98,0.25,,---,1.21,VWS V14.01,2013-04-14 13:13:00,
2013-04-14 08:18:00,57.5,56.9,29.85,NE,45,0.0,2.2,98,0.29,,---,1.25,VWS V14.01,2013-04-14 13:18:00,
2013-04-14 08:23:00,57.3,56.7,29.85,ESE,112,2.0,2.7,98,0.29,,---,1.29,VWS V14.01,2013-04-14 13:23:00,
2013-04-14 08:28:00,57.5,56.9,29.85,NNE,22,2.0,4.3,98,0.25,,---,1.29,VWS V14.01,2013-04-14 13:28:00,
2013-04-14 08:33:00,57.5,56.9,29.85,SE,135,0.0,2.5,98,0.29,,---,1.33,VWS V14.01,2013-04-14 13:33:00,
2013-04-14 08:38:00,57.5,56.9,29.85,ESE,112,1.3,3.8,98,0.25,,---,1.33,VWS V14.01,2013-04-14 13:38:00,
2013-04-14 08:43:00,57.5,56.9,29.85,ESE,112,2.5,2.5,98,0.25,,---,1.37,VWS V14.01,2013-04-14 13:43:00,
2013-04-14 08:48:00,57.5,56.9,29.82,SSE,158,4.3,4.3,98,0.25,,---,1.37,VWS V14.01,2013-04-14 13:48:00,
2013-04-14 08:53:00,57.5,56.9,29.82,ENE,68,0.0,1.6,98,0.20,,---,1.37,VWS V14.01,2013-04-14 13:53:00,
2013-04-14 08:58:00,57.5,56.9,29.79,ENE,68,2.7,2.7,98,0.20,,---,1.37,VWS V14.01,2013-04-14 13:58:00,
2013-04-14 09:03:00,57.5,56.9,29.79,ENE,68,0.0,3.4,98,0.20,,---,1.37,VWS V14.01,2013-04-14 14:03:00,
2013-04-14 09:08:00,57.7,57.1,29.79,SSW,202,0.0,3.1,98,0.16,,---,1.37,VWS V14.01,2013-04-14 14:08:00,
2013-04-14 09:13:00,57.7,57.1,29.79,ESE,112,1.6,4.7,98,0.16,,---,1.37,VWS V14.01,2013-04-14 14:13:00,
2013-04-14 09:18:00,57.8,57.3,29.79,WNW,292,2.5,4.7,98,0.12,,---,1.37,VWS V14.01,2013-04-14 14:18:00,
2013-04-14 09:23:00,57.8,57.3,29.79,SSE,158,0.9,3.6,98,0.08,,---,1.37,VWS V14.01,2013-04-14 14:23:00,
2013-04-14 09:28:00,57.8,57.3,29.79,SSE,158,2.9,5.6,98,0.08,,---,1.37,VWS V14.01,2013-04-14 14:28:00,
2013-04-14 09:33:00,57.8,57.3,29.79,ESE,112,4.3,4.3,98,0.04,,---,1.37,VWS V14.01,2013-04-14 14:33:00,
2013-04-14 09:38:00,57.8,57.3,29.79,ESE,112,3.4,3.4,98,0.04,,---,1.37,VWS V14.01,2013-04-14 14:38:00,
2013-04-14 09:43:00,57.8,57.3,29.79,ENE,68,2.5,3.6,98,0.00,,---,1.37,VWS V14.01,2013-04-14 14:43:00,
2013-04-14 09:48:00,57.8,57.3,29.79,ESE,112,2.7,2.7,98,0.00,,---,1.37,VWS V14.01,2013-04-14 14:48:00,
2013-04-14 09:53:00,58.0,57.5,29.79,SSE,158,2.0,2.5,98,0.00,,---,1.37,VWS V14.01,2013-04-14 14:53:00,
2013-04-14 09:58:00,58.2,57.6,29.82,SSE,158,3.6,3.6,98,0.00,,---,1.37,VWS V14.01,2013-04-14 14:58:00,
2013-04-14 10:03:00,58.4,57.8,29.82,SSE,158,5.6,5.6,98,0.04,,---,1.41,VWS V14.01,2013-04-14 15:03:00,
2013-04-14 10:08:00,58.4,57.8,29.82,SSE,158,4.0,4.7,98,0.04,,---,1.41,VWS V14.01,2013-04-14 15:08:00,
2013-04-14 10:13:00,58.4,57.8,29.85,SSW,202,2.5,2.5,98,0.04,,---,1.41,VWS V14.01,2013-04-14 15:13:00,
2013-04-14 10:18:00,58.4,57.8,29.85,ESE,112,3.6,3.6,98,0.04,,---,1.41,VWS V14.01,2013-04-14 15:18:00,
2013-04-14 10:23:00,58.2,57.6,29.85,ESE,112,3.6,4.7,98,0.04,,---,1.41,VWS V14.01,2013-04-14 15:23:00,
2013-04-14 10:29:00,58.2,57.6,29.79,ESE,112,2.7,5.6,98,0.04,,---,1.41,VWS V14.01,2013-04-14 15:29:00,
2013-04-14 10:34:00,58.2,57.6,29.79,SE,135,8.7,8.7,98,0.04,,---,1.41,VWS V14.01,2013-04-14 15:34:00,
2013-04-14 10:39:00,58.4,57.8,29.79,SSE,158,6.7,8.1,98,0.04,,---,1.41,VWS V14.01,2013-04-14 15:39:00,
2013-04-14 10:44:00,58.4,57.8,29.79,SSE,158,6.7,6.7,98,0.04,,---,1.41,VWS V14.01,2013-04-14 15:44:00,
2013-04-14 10:49:00,58.6,58.0,29.82,ENE,68,4.3,4.3,98,0.04,,---,1.41,VWS V14.01,2013-04-14 15:49:00,
2013-04-14 10:54:00,58.6,58.0,29.82,ESE,112,3.8,5.4,98,0.04,,---,1.41,VWS V14.01,2013-04-14 15:54:00,
2013-04-14 10:59:00,58.4,57.8,29.62,SSE,158,2.9,6.3,98,0.04,,---,1.41,VWS V14.01,2013-04-14 15:59:00,
2013-04-14 11:04:00,58.6,58.0,29.62,SSW,202,2.7,5.6,98,0.00,,---,1.41,VWS V14.01,2013-04-14 16:04:00,
2013-04-14 11:09:00,58.7,58.2,29.62,ESE,112,2.5,4.7,98,0.00,,---,1.41,VWS V14.01,2013-04-14 16:09:00,
2013-04-14 11:14:00,59.1,58.5,29.68,NNE,22,2.2,7.4,98,0.00,,---,1.41,VWS V14.01,2013-04-14 16:14:00,
2013-04-14 11:19:00,60.0,59.4,29.68,SSE,158,3.4,5.6,98,0.00,,---,1.41,VWS V14.01,2013-04-14 16:19:00,
2013-04-14 11:24:00,60.9,60.3,29.68,WSW,248,5.8,6.0,98,0.00,,---,1.41,VWS V14.01,2013-04-14 16:24:00,
2013-04-14 11:29:00,61.4,60.9,29.76,ESE,112,6.0,8.7,98,0.00,,---,1.41,VWS V14.01,2013-04-14 16:29:00,
2013-04-14 11:34:00,62.0,61.1,29.76,ESE,112,4.7,8.1,97,0.00,,---,1.41,VWS V14.01,2013-04-14 16:34:00,
2013-04-14 11:39:00,63.1,61.9,29.76,NW,315,4.9,5.8,96,0.00,,---,1.41,VWS V14.01,2013-04-14 16:39:00,
2013-04-14 11:44:00,64.1,62.4,29.76,SE,135,0.0,0.0,94,0.00,,---,1.41,VWS V14.01,2013-04-14 16:44:00,
2013-04-14 11:49:00,65.2,62.8,29.76,NNW,338,3.1,3.8,92,0.00,,---,1.41,VWS V14.01,2013-04-14 16:49:00,
2013-04-14 11:54:00,66.5,63.1,29.76,SSW,202,0.0,1.3,89,0.00,,---,1.41,VWS V14.01,2013-04-14 16:54:00,
2013-04-14 11:59:00,67.6,63.6,29.76,SSE,158,0.0,3.8,87,0.00,,---,1.41,VWS V14.01,2013-04-14 16:59:00,
2013-04-14 12:04:00,68.5,63.8,29.76,East,90,0.0,2.5,85,0.00,,---,1.41,VWS V14.01,2013-04-14 17:04:00,
2013-04-14 12:09:00,68.1,61.3,29.76,South,180,0.0,0.0,79,0.00,,---,1.41,VWS V14.01,2013-04-14 17:09:00,
2013-04-14 12:14:00,68.1,61.0,29.76,SSE,158,0.9,1.1,78,0.00,,---,1.41,VWS V14.01,2013-04-14 17:14:00,
2013-04-14 12:19:00,68.5,60.6,29.76,SSW,202,1.1,2.7,76,0.00,,---,1.41,VWS V14.01,2013-04-14 17:19:00,
2013-04-14 12:24:00,68.6,61.2,29.76,SSW,202,0.0,2.5,77,0.00,,---,1.41,VWS V14.01,2013-04-14 17:24:00,
2013-04-14 12:29:00,69.0,61.5,29.76,SSW,202,3.1,3.1,77,0.04,,---,1.45,VWS V14.01,2013-04-14 17:29:00,
2013-04-14 12:34:00,70.3,62.0,29.76,WSW,248,0.0,2.5,75,0.04,,---,1.45,VWS V14.01,2013-04-14 17:34:00,
2013-04-14 12:39:00,69.7,60.7,29.76,SSE,158,2.9,2.9,73,0.04,,---,1.45,VWS V14.01,2013-04-14 17:39:00,
2013-04-14 12:44:00,69.9,60.1,29.76,SW,225,2.5,3.4,71,0.04,,---,1.45,VWS V14.01,2013-04-14 17:44:00,
2013-04-14 12:49:00,69.7,60.3,29.76,NNW,338,0.0,0.0,72,0.04,,---,1.45,VWS V14.01,2013-04-14 17:49:00,
2013-04-14 12:54:00,69.9,60.1,29.76,WNW,292,0.0,0.0,71,0.04,,---,1.45,VWS V14.01,2013-04-14 17:54:00,
2013-04-14 12:59:00,70.1,60.2,29.76,SSE,158,2.9,2.9,71,0.04,,---,1.45,VWS V14.01,2013-04-14 17:59:00,
2013-04-14 13:04:00,69.9,60.1,29.76,NNE,22,0.0,2.7,71,0.04,,---,1.45,VWS V14.01,2013-04-14 18:04:00,
2013-04-14 13:09:00,69.9,59.7,29.76,SSE,158,3.8,4.0,70,0.04,,---,1.45,VWS V14.01,2013-04-14 18:09:00,
2013-04-14 13:14:00,69.9,60.1,29.76,ESE,112,3.1,4.0,71,0.04,,---,1.45,VWS V14.01,2013-04-14 18:14:00,
2013-04-14 13:19:00,70.1,59.8,29.76,ESE,112,4.3,4.3,70,0.04,,---,1.45,VWS V14.01,2013-04-14 18:19:00,
2013-04-14 13:24:00,71.0,60.7,29.76,SE,135,3.4,4.3,70,0.04,,---,1.45,VWS V14.01,2013-04-14 18:24:00,
2013-04-14 13:29:00,71.2,60.9,29.76,SSW,202,1.1,4.3,70,0.00,,---,1.45,VWS V14.01,2013-04-14 18:29:00,
2013-04-14 13:34:00,71.3,61.1,29.76,SSE,158,3.1,3.1,70,0.00,,---,1.45,VWS V14.01,2013-04-14 18:34:00,
2013-04-14 13:39:00,72.4,61.7,29.76,NE,45,1.1,1.1,69,0.00,,---,1.45,VWS V14.01,2013-04-14 18:39:00,
2013-04-14 13:44:00,71.9,59.5,29.76,ENE,68,2.0,2.2,65,0.00,,---,1.45,VWS V14.01,2013-04-14 18:44:00,
2013-04-14 13:49:00,71.3,59.0,29.76,NNE,22,3.1,3.1,65,0.00,,---,1.45,VWS V14.01,2013-04-14 18:49:00,
2013-04-14 13:54:00,71.5,59.6,29.76,ENE,68,0.0,0.9,66,0.00,,---,1.45,VWS V14.01,2013-04-14 18:54:00,
2013-04-14 13:59:00,71.7,60.2,29.76,NE,45,3.1,3.1,67,0.00,,---,1.45,VWS V14.01,2013-04-14 18:59:00,
2013-04-14 14:04:00,71.7,60.6,29.76,ESE,112,1.6,3.1,68,0.00,,---,1.45,VWS V14.01,2013-04-14 19:04:00,
2013-04-14 14:09:00,71.3,59.8,29.76,NNW,338,0.0,1.3,67,0.00,,---,1.45,VWS V14.01,2013-04-14 19:09:00,
2013-04-14 14:14:00,71.0,59.9,29.76,SSE,158,0.0,0.0,68,0.00,,---,1.45,VWS V14.01,2013-04-14 19:14:00,
2013-04-14 14:19:00,70.3,59.2,29.76,ESE,112,0.9,1.6,68,0.00,,---,1.45,VWS V14.01,2013-04-14 19:19:00,
2013-04-14 14:24:00,69.7,58.7,29.76,ENE,68,0.0,0.0,68,0.00,,---,1.45,VWS V14.01,2013-04-14 19:24:00,
2013-04-14 14:29:00,69.2,58.6,29.76,ENE,68,0.0,0.0,69,0.00,,---,1.45,VWS V14.01,2013-04-14 19:29:00,
2013-04-14 14:34:00,68.8,58.7,29.76,ESE,112,0.0,0.0,70,0.00,,---,1.45,VWS V14.01,2013-04-14 19:34:00,
2013-04-14 14:39:00,68.5,58.3,29.76,NE,45,0.0,0.0,70,0.00,,---,1.45,VWS V14.01,2013-04-14 19:39:00,
2013-04-14 14:44:00,68.3,58.5,29.76,ESE,112,0.0,0.0,71,0.00,,---,1.45,VWS V14.01,2013-04-14 19:44:00,
2013-04-14 14:49:00,67.9,58.2,29.76,NE,45,0.0,0.0,71,0.00,,---,1.45,VWS V14.01,2013-04-14 19:49:00,
2013-04-14 14:54:00,67.7,58.4,29.76,SSE,158,0.0,0.0,72,0.00,,---,1.45,VWS V14.01,2013-04-14 19:54:00,
2013-04-14 14:59:00,67.7,58.4,29.74,NE,45,0.0,0.0,72,0.00,,---,1.45,VWS V14.01,2013-04-14 19:59:00,
2013-04-14 15:04:00,67.6,58.6,29.74,NE,45,0.0,0.0,73,0.00,,---,1.45,VWS V14.01,2013-04-14 20:04:00,
2013-04-14 15:09:00,67.4,58.8,29.74,NE,45,0.0,0.0,74,0.00,,---,1.45,VWS V14.01,2013-04-14 20:09:00,
2013-04-14 15:15:00,67.2,58.6,29.76,NE,45,0.0,0.0,74,0.00,,---,1.45,VWS V14.01,2013-04-14 20:15:00,
2013-04-14 15:20:00,67.0,59.2,29.76,NE,45,0.0,0.0,76,0.00,,---,1.45,VWS V14.01,2013-04-14 20:20:00,
2013-04-14 15:25:00,66.8,59.4,29.76,NE,45,0.0,0.0,77,0.00,,---,1.45,VWS V14.01,2013-04-14 20:25:00,
2013-04-14 15:30:00,66.8,59.8,29.74,NE,45,0.0,0.0,78,0.00,,---,1.45,VWS V14.01,2013-04-14 20:30:00,
2013-04-14 15:35:00,66.8,60.1,29.74,NE,45,0.0,0.0,79,0.00,,---,1.45,VWS V14.01,2013-04-14 20:35:00,
2013-04-14 15:40:00,66.8,60.5,29.74,NE,45,0.0,0.0,80,0.00,,---,1.45,VWS V14.01,2013-04-14 20:40:00,
2013-04-14 15:45:00,67.0,61.0,29.74,North,0,0.0,0.0,81,0.00,,---,1.45,VWS V14.01,2013-04-14 20:45:00,
2013-04-14 15:50:00,67.0,60.7,29.74,NNE,22,0.0,0.0,80,0.00,,---,1.45,VWS V14.01,2013-04-14 20:50:00,
2013-04-14 15:55:00,67.2,60.8,29.74,SE,135,0.0,0.0,80,0.00,,---,1.45,VWS V14.01,2013-04-14 20:55:00,
2013-04-14 16:00:00,67.2,60.5,29.74,SSE,158,0.0,0.0,79,0.00,,---,1.45,VWS V14.01,2013-04-14 21:00:00,
2013-04-14 16:05:00,67.2,60.5,29.74,SSE,158,0.0,0.0,79,0.00,,---,1.45,VWS V14.01,2013-04-14 21:05:00,
2013-04-14 16:10:00,67.2,60.5,29.74,ENE,68,0.0,0.0,79,0.00,,---,1.45,VWS V14.01,2013-04-14 21:10:00,
2013-04-14 16:15:00,67.2,60.5,29.74,SSE,158,0.0,0.0,79,0.00,,---,1.45,VWS V14.01,2013-04-14 21:15:00,
2013-04-14 16:20:00,67.4,60.7,29.74,SE,135,0.0,0.0,79,0.00,,---,1.45,VWS V14.01,2013-04-14 21:20:00,
2013-04-14 16:25:00,67.6,60.5,29.74,NE,45,0.0,0.0,78,0.00,,---,1.45,VWS V14.01,2013-04-14 21:25:00,
2013-04-14 16:30:00,67.7,60.3,29.74,NE,45,0.0,0.0,77,0.00,,---,1.45,VWS V14.01,2013-04-14 21:30:00,
2013-04-14 16:35:00,67.7,60.3,29.74,ESE,112,0.0,0.0,77,0.00,,---,1.45,VWS V14.01,2013-04-14 21:35:00,
2013-04-14 16:40:00,67.9,60.5,29.74,SSW,202,0.0,0.0,77,0.00,,---,1.45,VWS V14.01,2013-04-14 21:40:00,
2013-04-14 16:45:00,68.1,60.6,29.74,SSE,158,0.0,0.0,77,0.00,,---,1.45,VWS V14.01,2013-04-14 21:45:00,
2013-04-14 16:50:00,68.5,61.0,29.74,SSE,158,0.0,1.6,77,0.00,,---,1.45,VWS V14.01,2013-04-14 21:50:00,
2013-04-14 16:55:00,68.6,60.0,29.74,SSE,158,1.1,1.6,74,0.00,,---,1.45,VWS V14.01,2013-04-14 21:55:00,
2013-04-14 17:00:00,68.6,60.4,29.74,SSW,202,2.2,2.2,75,0.00,,---,1.45,VWS V14.01,2013-04-14 22:00:00,
2013-04-14 17:05:00,68.6,60.0,29.74,South,180,0.0,0.0,74,0.00,,---,1.45,VWS V14.01,2013-04-14 22:05:00,
2013-04-14 17:10:00,68.6,60.0,29.74,SSW,202,0.9,0.9,74,0.00,,---,1.45,VWS V14.01,2013-04-14 22:10:00,
2013-04-14 17:15:00,68.5,59.5,29.74,SE,135,0.0,0.0,73,0.00,,---,1.45,VWS V14.01,2013-04-14 22:15:00,
2013-04-14 17:20:00,68.3,59.3,29.74,SSE,158,1.1,3.1,73,0.00,,---,1.45,VWS V14.01,2013-04-14 22:20:00,
2013-04-14 17:25:00,68.1,59.1,29.74,ESE,112,0.0,0.0,73,0.00,,---,1.45,VWS V14.01,2013-04-14 22:25:00,
2013-04-14 17:30:00,68.1,59.1,29.74,SSE,158,0.0,0.0,73,0.00,,---,1.45,VWS V14.01,2013-04-14 22:30:00,
2013-04-14 17:35:00,67.9,59.3,29.74,SSW,202,0.0,0.0,74,0.00,,---,1.45,VWS V14.01,2013-04-14 22:35:00,
2013-04-14 17:40:00,67.9,59.3,29.74,SE,135,0.0,0.0,74,0.00,,---,1.45,VWS V14.01,2013-04-14 22:40:00,
2013-04-14 17:45:00,67.7,59.2,29.76,ESE,112,0.0,0.0,74,0.00,,---,1.45,VWS V14.01,2013-04-14 22:45:00,
2013-04-14 17:50:00,67.4,58.8,29.76,SSE,158,0.0,0.0,74,0.00,,---,1.45,VWS V14.01,2013-04-14 22:50:00,
2013-04-14 17:55:00,67.4,58.8,29.76,SSE,158,0.0,0.0,74,0.00,,---,1.45,VWS V14.01,2013-04-14 22:55:00,
2013-04-14 18:00:00,67.2,59.0,29.76,ESE,112,0.0,0.0,75,0.00,,---,1.45,VWS V14.01,2013-04-14 23:00:00,
2013-04-14 18:05:00,67.2,59.4,29.76,ENE,68,0.0,0.0,76,0.00,,---,1.45,VWS V14.01,2013-04-14 23:05:00,
2013-04-14 18:10:00,67.2,59.4,29.76,ESE,112,0.0,0.0,76,0.00,,---,1.45,VWS V14.01,2013-04-14 23:10:00,
2013-04-14 18:15:00,67.0,59.6,29.76,NE,45,0.0,0.0,77,0.00,,---,1.45,VWS V14.01,2013-04-14 23:15:00,
2013-04-14 18:21:00,67.0,59.9,29.76,ENE,68,0.0,0.0,78,0.00,,---,1.45,VWS V14.01,2013-04-14 23:21:00,
2013-04-14 18:26:00,66.8,60.1,29.76,ESE,112,0.0,0.0,79,0.00,,---,1.45,VWS V14.01,2013-04-14 23:26:00,
2013-04-14 18:31:00,66.7,60.0,29.74,ENE,68,0.0,0.0,79,0.00,,---,1.45,VWS V14.01,2013-04-14 23:31:00,
2013-04-14 18:36:00,66.7,60.0,29.74,ENE,68,0.0,0.0,79,0.00,,---,1.45,VWS V14.01,2013-04-14 23:36:00,
2013-04-14 18:41:00,66.5,60.1,29.74,ENE,68,0.0,0.0,80,0.00,,---,1.45,VWS V14.01,2013-04-14 23:41:00,
2013-04-14 18:46:00,66.5,60.1,29.74,ENE,68,0.0,0.0,80,0.00,,---,1.45,VWS V14.01,2013-04-14 23:46:00,
2013-04-14 18:51:00,66.3,60.3,29.74,North,0,0.0,0.0,81,0.00,,---,1.45,VWS V14.01,2013-04-14 23:51:00,
2013-04-14 18:56:00,66.1,60.1,29.74,NE,45,0.0,0.0,81,0.00,,---,1.45,VWS V14.01,2013-04-14 23:56:00,
2013-04-14 19:01:00,65.8,60.1,29.76,NE,45,0.0,0.0,82,0.00,,---,1.45,VWS V14.01,2013-04-15 00:01:00,
2013-04-14 19:06:00,65.6,59.9,29.76,ENE,68,0.0,0.0,82,0.00,,---,1.45,VWS V14.01,2013-04-15 00:06:00,
2013-04-14 19:11:00,65.4,59.8,29.76,ENE,68,0.0,0.0,82,0.00,,---,1.45,VWS V14.01,2013-04-15 00:11:00,
2013-04-14 19:16:00,65.0,59.8,29.74,ENE,68,0.0,0.0,83,0.00,,---,1.45,VWS V14.01,2013-04-15 00:16:00,
2013-04-14 19:21:00,64.7,60.1,29.74,ENE,68,0.0,0.0,85,0.00,,---,1.45,VWS V14.01,2013-04-15 00:21:00,
2013-04-14 19:26:00,64.3,59.7,29.74,ENE,68,0.0,0.0,85,0.00,,---,1.45,VWS V14.01,2013-04-15 00:26:00,
2013-04-14 19:31:00,64.1,59.5,29.74,ENE,68,0.0,0.0,85,0.00,,---,1.45,VWS V14.01,2013-04-15 00:31:00,
2013-04-14 19:36:00,64.0,59.7,29.74,ENE,68,0.0,0.0,86,0.00,,---,1.45,VWS V14.01,2013-04-15 00:36:00,
2013-04-14 19:41:00,63.6,59.7,29.74,ENE,68,0.0,0.0,87,0.00,,---,1.45,VWS V14.01,2013-04-15 00:41:00,
2013-04-14 19:46:00,63.4,59.5,29.74,ENE,68,0.0,0.0,87,0.00,,---,1.45,VWS V14.01,2013-04-15 00:46:00,
2013-04-14 19:51:00,63.2,59.6,29.74,NNE,22,0.0,0.0,88,0.00,,---,1.45,VWS V14.01,2013-04-15 00:51:00,
2013-04-14 19:57:00,62.9,59.6,29.74,ESE,112,0.0,0.0,89,0.00,,---,1.45,VWS V14.01,2013-04-15 00:57:00,
2013-04-14 20:02:00,62.7,59.4,29.76,ESE,112,0.0,0.0,89,0.00,,---,1.45,VWS V14.01,2013-04-15 01:02:00,
2013-04-14 20:07:00,62.5,59.2,29.76,ESE,112,0.0,0.0,89,0.00,,---,1.45,VWS V14.01,2013-04-15 01:07:00,
2013-04-14 20:12:00,62.3,59.4,29.76,ESE,112,0.0,0.0,90,0.00,,---,1.45,VWS V14.01,2013-04-15 01:12:00,
2013-04-14 20:17:00,62.0,59.0,29.76,East,90,0.0,0.0,90,0.00,,---,1.45,VWS V14.01,2013-04-15 01:17:00,
2013-04-14 20:22:00,61.8,59.2,29.76,ENE,68,0.0,0.0,91,0.00,,---,1.45,VWS V14.01,2013-04-15 01:22:00,
2013-04-14 20:27:00,61.6,59.0,29.76,ENE,68,0.0,0.0,91,0.00,,---,1.45,VWS V14.01,2013-04-15 01:27:00,
2013-04-14 20:32:00,61.4,59.1,29.76,NE,45,0.0,0.0,92,0.00,,---,1.45,VWS V14.01,2013-04-15 01:32:00,
2013-04-14 20:37:00,61.4,59.1,29.76,NE,45,0.0,0.0,92,0.00,,---,1.45,VWS V14.01,2013-04-15 01:37:00,
2013-04-14 20:42:00,61.1,58.7,29.76,NE,45,0.0,0.0,92,0.00,,---,1.45,VWS V14.01,2013-04-15 01:42:00,
2013-04-14 20:47:00,61.1,59.0,29.76,NE,45,0.0,0.0,93,0.00,,---,1.45,VWS V14.01,2013-04-15 01:47:00,
2013-04-14 20:52:00,60.9,58.9,29.76,NE,45,0.0,0.0,93,0.00,,---,1.45,VWS V14.01,2013-04-15 01:52:00,
2013-04-14 20:57:00,60.7,58.7,29.76,NE,45,0.0,0.0,93,0.00,,---,1.45,VWS V14.01,2013-04-15 01:57:00,
2013-04-14 21:02:00,60.7,58.7,29.76,NE,45,0.0,0.0,93,0.00,,---,1.45,VWS V14.01,2013-04-15 02:02:00,
2013-04-14 21:07:00,60.5,58.5,29.76,NE,45,0.0,0.0,93,0.00,,---,1.45,VWS V14.01,2013-04-15 02:07:00,
2013-04-14 21:12:00,60.4,58.3,29.76,NE,45,0.0,0.0,93,0.00,,---,1.45,VWS V14.01,2013-04-15 02:12:00,
2013-04-14 21:17:00,60.4,58.6,29.76,NNE,22,0.0,0.0,94,0.00,,---,1.45,VWS V14.01,2013-04-15 02:17:00,
2013-04-14 21:22:00,60.2,58.5,29.76,NNE,22,0.0,0.0,94,0.00,,---,1.45,VWS V14.01,2013-04-15 02:22:00,
2013-04-14 21:27:00,60.2,58.5,29.76,NNE,22,0.0,0.0,94,0.00,,---,1.45,VWS V14.01,2013-04-15 02:27:00,
2013-04-14 21:32:00,60.0,58.3,29.76,NNE,22,0.0,0.0,94,0.00,,---,1.45,VWS V14.01,2013-04-15 02:32:00,
2013-04-14 21:37:00,59.8,58.4,29.76,ESE,112,0.0,0.0,95,0.00,,---,1.45,VWS V14.01,2013-04-15 02:37:00,
2013-04-14 21:42:00,59.8,58.4,29.76,ESE,112,0.0,0.0,95,0.00,,---,1.45,VWS V14.01,2013-04-15 02:42:00,
2013-04-14 21:47:00,59.6,58.2,29.76,ESE,112,0.0,0.0,95,0.00,,---,1.45,VWS V14.01,2013-04-15 02:47:00,
2013-04-14 21:52:00,59.6,58.2,29.76,ESE,112,0.0,0.0,95,0.00,,---,1.45,VWS V14.01,2013-04-15 02:52:00,
2013-04-14 21:57:00,59.5,58.0,29.76,ESE,112,0.0,0.0,95,0.00,,---,1.45,VWS V14.01,2013-04-15 02:57:00,
2013-04-14 22:02:00,59.5,58.0,29.76,ESE,112,0.0,0.0,95,0.00,,---,1.45,VWS V14.01,2013-04-15 03:02:00,
2013-04-14 22:07:00,59.3,57.8,29.76,NNW,338,0.0,0.0,95,0.00,,---,1.45,VWS V14.01,2013-04-15 03:07:00,
2013-04-14 22:13:00,59.3,57.8,29.76,NNW,338,0.0,0.0,95,0.00,,---,1.45,VWS V14.01,2013-04-15 03:13:00,
2013-04-14 22:18:00,59.1,58.0,29.76,NNW,338,0.0,0.0,96,0.00,,---,1.45,VWS V14.01,2013-04-15 03:18:00,
2013-04-14 22:23:00,59.1,58.0,29.76,NNW,338,0.0,0.0,96,0.00,,---,1.45,VWS V14.01,2013-04-15 03:23:00,
2013-04-14 22:28:00,59.1,58.0,29.76,NNW,338,0.0,0.0,96,0.00,,---,1.45,VWS V14.01,2013-04-15 03:28:00,
2013-04-14 22:33:00,58.9,57.8,29.76,SSE,158,0.0,0.0,96,0.00,,---,1.45,VWS V14.01,2013-04-15 03:33:00,
2013-04-14 22:38:00,58.9,57.8,29.76,SW,225,0.0,0.0,96,0.00,,---,1.45,VWS V14.01,2013-04-15 03:38:00,
2013-04-14 22:43:00,58.9,57.8,29.76,SSW,202,0.0,0.0,96,0.00,,---,1.45,VWS V14.01,2013-04-15 03:43:00,
2013-04-14 22:48:00,58.9,57.8,29.76,SSE,158,0.0,0.0,96,0.00,,---,1.45,VWS V14.01,2013-04-15 03:48:00,
2013-04-14 22:53:00,58.7,57.9,29.76,SSE,158,0.0,0.0,97,0.00,,---,1.45,VWS V14.01,2013-04-15 03:53:00,
2013-04-14 22:58:00,58.7,57.9,29.79,SE,135,0.0,0.0,97,0.00,,---,1.45,VWS V14.01,2013-04-15 03:58:00,
2013-04-14 23:00:00,58.7,57.9,29.79,ESE,112,0.0,0.0,97,0.00,,---,1.45,VWS V14.01,2013-04-15 04:00:00,
2013-04-14 23:05:00,58.7,57.9,29.79,ESE,112,0.0,0.0,97,0.00,,---,1.45,VWS V14.01,2013-04-15 04:05:00,
2013-04-14 23:10:00,58.7,57.9,29.79,SE,135,0.0,0.0,97,0.00,,---,1.45,VWS V14.01,2013-04-15 04:10:00,
2013-04-14 23:15:00,58.7,57.9,29.79,ESE,112,0.0,0.0,97,0.00,,---,1.45,VWS V14.01,2013-04-15 04:15:00,
2013-04-14 23:20:00,58.6,57.7,29.79,ESE,112,0.0,0.0,97,0.00,,---,1.45,VWS V14.01,2013-04-15 04:20:00,
2013-04-14 23:25:00,58.6,57.7,29.79,ESE,112,0.0,0.0,97,0.00,,---,1.45,VWS V14.01,2013-04-15 04:25:00,
2013-04-14 23:30:00,58.6,57.7,29.79,ESE,112,0.0,0.0,97,0.00,,---,1.45,VWS V14.01,2013-04-15 04:30:00,
2013-04-14 23:35:00,58.6,57.7,29.79,ESE,112,0.0,0.0,97,0.00,,---,1.45,VWS V14.01,2013-04-15 04:35:00,
2013-04-14 23:40:00,58.4,57.5,29.79,ENE,68,0.0,0.0,97,0.00,,---,1.45,VWS V14.01,2013-04-15 04:40:00,
2013-04-14 23:45:00,58.4,57.5,29.79,ENE,68,0.0,0.0,97,0.00,,---,1.45,VWS V14.01,2013-04-15 04:45:00,
2013-04-14 23:50:00,58.4,57.5,29.79,ENE,68,0.0,0.0,97,0.00,,---,1.45,VWS V14.01,2013-04-15 04:50:00,
2013-04-14 23:55:00,58.2,57.4,29.79,ENE,68,0.0,0.0,97,0.00,,---,1.45,VWS V14.01,2013-04-15 04:55:00,